Main page
METAR-TAF:

METAR-TAF

Airports :

Avignon – Provence Airport

Avignon, France

latitude: 43-54-26N, longitude: 004-54-07E, elevation: 38 m

Current weather observation

The report was made 39 minutes ago, at 19:30 UTC
Wind 19 kt from the North
Temperature 4°C
Humidity 56%
Pressure 1027 hPa
Visibility 10 km or more
no clouds below 1500 m and no cumulonimbus

METAR: LFMV 211930Z AUTO 35019KT CAVOK 04/M04 Q1027 BECMG 35020G35KT

Time: 21:09 (20:09 UTC)

Forecast

The report was made 6 hours and 9 minutes ago, at 14:00 UTC
Forecast valid from 21 at 15 UTC to 22 at 15 UTC
Wind 20 kt from the North with gusts up to 35 kt
Visibility 10 km or more
no clouds below 1500 m and no cumulonimbus

TAF: LFMV 211400Z 2115/2215 35020G35KT CAVOK

Weather observations and forecasts of more than 4000 airports (METAR and TAF reports).

The available stations are represented by yellow and red dots on the map.

Hover mouse over dot to see the name of the station.

Then click to see weather observations and forecasts.

To change the map : click on the green buttons with a black cross to zoom in, on the green button with a dash to zoom out, or on the green arrows for adjacent maps.


METAR-TAF: